createdAt,value
2023-05-01T00:00:24.042Z,97563.94
2023-05-01T00:02:52.754Z,97544.84
2023-05-01T00:05:20.816Z,97541.53
2023-05-01T00:07:48.711Z,97540.69
2023-05-01T00:10:17.131Z,97512.34
2023-05-01T00:12:44.978Z,97505.56
2023-05-01T00:15:12.796Z,97491.88
2023-05-01T00:17:41.953Z,97464.63
2023-05-01T00:20:11.065Z,97464.47
2023-05-01T00:22:38.809Z,97468.63
2023-05-01T00:25:08.108Z,97479.84
2023-05-01T00:27:36.085Z,97448.16
2023-05-01T00:30:03.983Z,97458.53
2023-05-01T00:32:31.826Z,97431.00
2023-05-01T00:35:01.080Z,97434.47
2023-05-01T00:37:29.004Z,97428.38
2023-05-01T00:39:57.089Z,97406.28
2023-05-01T00:42:25.131Z,97408.75
2023-05-01T00:44:52.955Z,97345.59
2023-05-01T00:47:20.886Z,97302.91
2023-05-01T00:49:49.079Z,97291.19
2023-05-01T00:52:18.197Z,97280.69
2023-05-01T00:54:51.941Z,97239.94
2023-05-01T00:57:20.796Z,97173.94
2023-05-01T00:59:48.844Z,97159.75
2023-05-01T01:02:16.870Z,97130.44
2023-05-01T01:04:46.616Z,97111.00
2023-05-01T01:07:21.905Z,97124.53
2023-05-01T01:10:03.615Z,97088.66
2023-05-01T01:12:35.849Z,97084.22
2023-05-01T01:15:11.212Z,97078.44
2023-05-01T01:17:47.293Z,97055.41
2023-05-01T01:20:23.322Z,97006.56
2023-05-01T01:23:02.473Z,96994.56
2023-05-01T01:26:04.541Z,96956.41
2023-05-01T01:29:03.952Z,96973.50
2023-05-01T01:31:41.382Z,96938.34
2023-05-01T01:34:16.052Z,96901.66
2023-05-01T01:36:52.127Z,96849.88
2023-05-01T01:39:31.530Z,96843.81
2023-05-01T01:42:01.386Z,96779.88
2023-05-01T01:44:34.877Z,96769.03
2023-05-01T01:47:06.030Z,96725.66
2023-05-01T01:49:39.515Z,96684.63
2023-05-01T01:52:09.565Z,96660.66
2023-05-01T01:54:41.882Z,96665.91
2023-05-01T01:57:13.182Z,96681.31
2023-05-01T01:59:43.193Z,96639.78
2023-05-01T02:02:12.315Z,96611.69
2023-05-01T02:04:44.494Z,96599.56
2023-05-01T02:07:14.363Z,96568.09
2023-05-01T02:09:44.821Z,96586.13
2023-05-01T02:12:14.106Z,96568.09
2023-05-01T02:14:43.967Z,96508.72
2023-05-01T02:17:12.142Z,96473.78
2023-05-01T02:19:41.863Z,96438.88
2023-05-01T02:22:11.514Z,96397.25
2023-05-01T02:24:41.443Z,96348.06
2023-05-01T02:27:13.537Z,96317.28
2023-05-01T02:29:41.399Z,96380.19
2023-05-01T02:32:09.333Z,96415.09
2023-05-01T02:34:37.215Z,96437.22
2023-05-01T02:37:09.017Z,96472.94
2023-05-01T02:39:36.830Z,96506.91
2023-05-01T02:42:06.276Z,96478.84
2023-05-01T02:44:41.907Z,96443.94
2023-05-01T02:47:12.944Z,96443.44
2023-05-01T02:49:42.198Z,96432.66
2023-05-01T02:52:12.685Z,96421.00
2023-05-01T02:54:40.752Z,96409.03
2023-05-01T02:57:08.630Z,96452.78
2023-05-01T02:59:36.391Z,96463.75
2023-05-01T03:02:05.197Z,96470.34
2023-05-01T03:04:33.189Z,96501.84
2023-05-01T03:07:01.548Z,96565.47
2023-05-01T03:09:31.478Z,96572.34
2023-05-01T03:11:59.344Z,96603.56
2023-05-01T03:14:28.518Z,96603.56
2023-05-01T03:16:56.679Z,96627.66
2023-05-01T03:19:24.709Z,96676.38
2023-05-01T03:21:52.576Z,96695.47
2023-05-01T03:24:20.372Z,96726.19
2023-05-01T03:26:49.556Z,96741.47
2023-05-01T03:29:17.454Z,96784.81
2023-05-01T03:31:45.361Z,96808.78
2023-05-01T03:34:13.355Z,96827.53
2023-05-01T03:36:41.104Z,96869.28
2023-05-01T03:39:09.596Z,96864.19
2023-05-01T03:41:37.435Z,96868.31
2023-05-01T03:44:06.618Z,96872.44
2023-05-01T03:46:34.536Z,96892.28
2023-05-01T03:49:02.522Z,96903.28
2023-05-01T03:51:30.350Z,96911.84
2023-05-01T03:53:58.877Z,96921.09
2023-05-01T03:56:27.613Z,96956.09
2023-05-01T03:58:57.743Z,96960.38
2023-05-01T04:01:27.046Z,96984.91
2023-05-01T04:03:55.022Z,97029.31
2023-05-01T04:06:23.585Z,97044.78
2023-05-01T04:08:51.366Z,97060.22
2023-05-01T04:11:19.139Z,97059.69
2023-05-01T04:13:47.200Z,97116.50
2023-05-01T04:16:15.049Z,97152.41
2023-05-01T04:18:44.257Z,97229.97
2023-05-01T04:21:13.245Z,97248.75
2023-05-01T04:23:41.291Z,97309.38
2023-05-01T04:26:09.323Z,97344.22
2023-05-01T04:28:37.189Z,97385.25
2023-05-01T04:31:05.037Z,97441.63
2023-05-01T04:33:32.812Z,97499.03
2023-05-01T04:36:02.068Z,97543.44
2023-05-01T04:38:31.110Z,97636.19
2023-05-01T04:40:58.888Z,97708.88
2023-05-01T04:43:26.664Z,97785.75
2023-05-01T04:45:55.516Z,97859.59
2023-05-01T04:48:25.888Z,97923.81
2023-05-01T04:50:55.383Z,97983.84
2023-05-01T04:53:24.616Z,98025.88
2023-05-01T04:55:52.419Z,98065.44
2023-05-01T04:58:20.454Z,98099.69
2023-05-01T05:00:48.248Z,98142.75
2023-05-01T05:03:19.062Z,98161.66
2023-05-01T05:05:47.264Z,98206.25
2023-05-01T05:08:15.236Z,98216.66
2023-05-01T05:10:44.475Z,98274.31
2023-05-01T05:13:12.315Z,98284.75
2023-05-01T05:15:40.179Z,98317.41
2023-05-01T05:18:08.181Z,98327.53
2023-05-01T05:20:39.547Z,98380.09
2023-05-01T05:23:08.433Z,98417.91
2023-05-01T05:25:36.520Z,98482.47
2023-05-01T05:28:05.901Z,98509.03
2023-05-01T05:30:33.866Z,98610.53
2023-05-01T05:33:01.941Z,98677.94
2023-05-01T05:35:30.009Z,98737.41
2023-05-01T05:37:58.569Z,98734.06
2023-05-01T05:40:26.430Z,98740.03
2023-05-01T05:42:57.448Z,98724.56
2023-05-01T05:45:26.598Z,98715.81
2023-05-01T05:47:54.686Z,98749.50
2023-05-01T05:50:22.617Z,98724.44
2023-05-01T05:52:50.375Z,98720.13
2023-05-01T05:55:18.314Z,98737.25
2023-05-01T05:57:46.251Z,98723.75
2023-05-01T06:00:15.351Z,98705.91
2023-05-01T06:02:44.632Z,98798.88
2023-05-01T06:05:12.997Z,98912.63
2023-05-01T06:07:41.374Z,98974.72
2023-05-01T06:10:10.437Z,98995.47
2023-05-01T06:12:41.349Z,99023.13
2023-05-01T06:15:19.966Z,99173.16
2023-05-01T06:17:49.274Z,99303.09
2023-05-01T06:20:17.102Z,99322.94
2023-05-01T06:22:45.172Z,99442.63
2023-05-01T06:25:13.106Z,99416.63
2023-05-01T06:27:41.125Z,99348.13
2023-05-01T06:30:10.870Z,99357.63
2023-05-01T06:32:38.821Z,99385.31
2023-05-01T06:35:08.982Z,99451.31
2023-05-01T06:37:38.417Z,99514.94
2023-05-01T06:40:07.555Z,99402.06
2023-05-01T06:42:35.447Z,99479.16
2023-05-01T06:45:03.788Z,99527.56
2023-05-01T06:47:31.631Z,99450.47
2023-05-01T06:49:59.541Z,99337.16
2023-05-01T06:52:28.740Z,99262.47
2023-05-01T06:54:56.527Z,99244.53
2023-05-01T06:57:24.605Z,99232.03
2023-05-01T06:59:52.394Z,99286.03
2023-05-01T07:02:20.218Z,99507.56
2023-05-01T07:04:48.104Z,99633.41
2023-05-01T07:07:15.922Z,99697.47
2023-05-01T07:09:45.071Z,99768.63
2023-05-01T07:12:13.247Z,99726.03
2023-05-01T07:14:41.754Z,99680.19
2023-05-01T07:17:10.151Z,99597.00
2023-05-01T07:19:38.021Z,99509.50
2023-05-01T07:22:05.805Z,99468.06
2023-05-01T07:24:33.598Z,99435.91
2023-05-01T07:27:02.742Z,99499.88
2023-05-01T07:29:30.838Z,99540.59
2023-05-01T07:31:58.697Z,99619.94
2023-05-01T07:34:26.526Z,99658.47
2023-05-01T07:36:54.352Z,99792.75
2023-05-01T07:39:22.467Z,99932.75
2023-05-01T07:41:50.273Z,100075.31
2023-05-01T07:44:19.576Z,100226.47
2023-05-01T07:46:47.515Z,100417.00
2023-05-01T07:49:15.427Z,100499.66
2023-05-01T07:51:44.219Z,100641.84
2023-05-01T07:54:14.844Z,100722.97
2023-05-01T07:56:42.610Z,100930.56
2023-05-01T07:59:10.455Z,101054.66
2023-05-01T08:01:39.780Z,101060.84
2023-05-01T08:04:07.898Z,100880.06
2023-05-01T08:06:35.858Z,100628.88
2023-05-01T08:09:03.643Z,100553.94
2023-05-01T08:11:33.453Z,100538.31
2023-05-01T08:14:01.265Z,100597.56
2023-05-01T08:16:29.123Z,100590.53
2023-05-01T08:18:58.238Z,100486.91
2023-05-01T08:21:26.577Z,100384.88
2023-05-01T08:23:56.816Z,100368.31
2023-05-01T08:26:24.534Z,100443.28
2023-05-01T08:28:52.515Z,100421.59
2023-05-01T08:31:21.206Z,100368.31
2023-05-01T08:33:49.058Z,100366.72
2023-05-01T08:36:20.021Z,100450.19
2023-05-01T08:38:48.939Z,100507.88
2023-05-01T08:41:17.497Z,100551.41
2023-05-01T08:43:45.809Z,100611.63
2023-05-01T08:46:16.791Z,100650.81
2023-05-01T08:48:45.858Z,100865.38
2023-05-01T08:51:19.027Z,100903.97
2023-05-01T08:53:52.266Z,100875.19
2023-05-01T08:56:21.368Z,100753.03
2023-05-01T08:58:50.850Z,100686.59
2023-05-01T09:01:19.955Z,100600.34
2023-05-01T09:03:50.996Z,100534.06
2023-05-01T09:06:19.210Z,100460.97
2023-05-01T09:08:47.048Z,100316.38
2023-05-01T09:11:16.534Z,100285.00
2023-05-01T09:13:44.377Z,100345.91
2023-05-01T09:16:12.679Z,100438.44
2023-05-01T09:18:41.074Z,100527.88
2023-05-01T09:21:08.968Z,100554.19
2023-05-01T09:23:37.684Z,100535.03
2023-05-01T09:26:06.671Z,100490.63
2023-05-01T09:28:43.093Z,100440.00
2023-05-01T09:31:24.892Z,100413.97
2023-05-01T09:33:55.322Z,100376.78
2023-05-01T09:36:24.122Z,100212.91
2023-05-01T09:38:52.399Z,100073.88
2023-05-01T09:41:22.385Z,100110.38
2023-05-01T09:43:52.619Z,100178.09
2023-05-01T09:46:21.156Z,100029.63
2023-05-01T09:48:57.163Z,99947.00
2023-05-01T09:51:26.959Z,99922.81
2023-05-01T09:53:56.729Z,99971.28
2023-05-01T09:56:24.961Z,99898.81
2023-05-01T09:58:55.442Z,99866.19
2023-05-01T10:01:38.908Z,99855.91
2023-05-01T10:04:07.186Z,99840.22
2023-05-01T10:06:35.198Z,99854.09
2023-05-01T10:09:07.115Z,99705.78
2023-05-01T10:11:49.179Z,99607.28
2023-05-01T10:14:18.398Z,99543.03
2023-05-01T10:16:47.721Z,99597.38
2023-05-01T10:19:18.105Z,99717.81
2023-05-01T10:21:45.905Z,99851.56
2023-05-01T10:24:15.196Z,99880.06
2023-05-01T10:26:43.528Z,99947.84
2023-05-01T10:29:13.038Z,99997.47
2023-05-01T10:31:42.799Z,99986.00
2023-05-01T10:34:12.845Z,100030.47
2023-05-01T10:36:45.965Z,99990.47
2023-05-01T10:39:31.954Z,99979.25
2023-05-01T10:42:04.854Z,100092.97
2023-05-01T10:44:35.107Z,99987.94
2023-05-01T10:47:37.833Z,99965.34
2023-05-01T10:50:08.871Z,99996.63
2023-05-01T10:53:14.648Z,100130.31
2023-05-01T10:55:43.898Z,100161.75
2023-05-01T10:58:12.132Z,100199.00
2023-05-01T11:00:39.886Z,100218.97
2023-05-01T11:03:37.474Z,100105.03
2023-05-01T11:06:09.947Z,99981.06
2023-05-01T11:08:39.287Z,99840.31
2023-05-01T11:11:43.610Z,99721.47
2023-05-01T11:14:11.614Z,99663.34
2023-05-01T11:16:44.248Z,99682.50
2023-05-01T11:19:33.671Z,99714.47
2023-05-01T11:22:03.185Z,99667.81
2023-05-01T11:24:34.067Z,99689.25
2023-05-01T11:27:02.803Z,99692.88
2023-05-01T11:29:33.831Z,99711.81
2023-05-01T11:32:01.979Z,99733.53
2023-05-01T11:34:36.990Z,99784.69
2023-05-01T11:37:06.135Z,99772.63
2023-05-01T11:39:33.932Z,99720.03
2023-05-01T11:42:08.942Z,99713.63
2023-05-01T11:44:37.383Z,99685.88
2023-05-01T11:47:07.270Z,99715.31
2023-05-01T11:49:35.636Z,99688.66
2023-05-01T11:52:03.388Z,99712.78
2023-05-01T11:54:32.686Z,99627.06
2023-05-01T11:57:01.931Z,99603.78
2023-05-01T11:59:30.604Z,99494.47
2023-05-01T12:01:58.466Z,99432.22
2023-05-01T12:04:31.532Z,99379.47
2023-05-01T12:07:00.169Z,99335.88
2023-05-01T12:09:29.411Z,99332.63
2023-05-01T12:12:02.009Z,99291.84
2023-05-01T12:14:30.689Z,99290.16
2023-05-01T12:16:58.615Z,99280.66
2023-05-01T12:19:26.545Z,99297.16
2023-05-01T12:22:06.642Z,99298.81
2023-05-01T12:24:34.445Z,99302.19
2023-05-01T12:27:03.812Z,99323.97
2023-05-01T12:29:41.638Z,99302.56
2023-05-01T12:32:10.144Z,99257.16
2023-05-01T12:34:38.469Z,99186.47
2023-05-01T12:37:06.359Z,99087.84
2023-05-01T12:39:39.417Z,99058.53
2023-05-01T12:42:15.410Z,99043.16
2023-05-01T12:44:44.917Z,99025.84
2023-05-01T12:47:14.020Z,99059.75
2023-05-01T12:49:42.293Z,99056.84
2023-05-01T12:52:12.795Z,98993.19
2023-05-01T12:54:45.590Z,98922.31
2023-05-01T12:57:16.219Z,98863.50
2023-05-01T12:59:46.289Z,98849.84
2023-05-01T13:02:16.207Z,98781.78
2023-05-01T13:04:45.411Z,98699.72
2023-05-01T13:07:15.064Z,98697.09
2023-05-01T13:09:53.660Z,98665.34
2023-05-01T13:12:23.387Z,98640.28
2023-05-01T13:14:51.994Z,98608.25
2023-05-01T13:17:25.640Z,98667.84
2023-05-01T13:19:57.333Z,98597.09
2023-05-01T13:22:32.729Z,98621.47
2023-05-01T13:25:01.289Z,98596.53
2023-05-01T13:27:30.664Z,98616.91
2023-05-01T13:30:01.209Z,98634.16
2023-05-01T13:32:29.199Z,98704.88
2023-05-01T13:34:58.416Z,98624.00
2023-05-01T13:37:26.548Z,98624.69
2023-05-01T13:39:58.777Z,98617.41
2023-05-01T13:42:26.855Z,98636.09
2023-05-01T13:44:57.709Z,98568.97
2023-05-01T13:47:27.247Z,98609.47
2023-05-01T13:49:55.772Z,98566.34
2023-05-01T13:52:24.516Z,98608.50
2023-05-01T13:54:54.254Z,98641.38
2023-05-01T13:57:22.070Z,98571.34
2023-05-01T13:59:51.635Z,98574.00
2023-05-01T14:02:22.682Z,98590.28
2023-05-01T14:04:50.774Z,98654.91
2023-05-01T14:07:20.031Z,98754.22
2023-05-01T14:09:55.917Z,98837.84
2023-05-01T14:12:27.515Z,98822.19
2023-05-01T14:14:55.349Z,98817.19
2023-05-01T14:17:31.486Z,98819.00
2023-05-01T14:19:59.419Z,98815.38
2023-05-01T14:22:30.298Z,98787.91
2023-05-01T14:24:59.033Z,98729.13
2023-05-01T14:27:27.230Z,98720.59
2023-05-01T14:29:55.643Z,98646.81
2023-05-01T14:32:23.777Z,98671.59
2023-05-01T14:34:53.015Z,98667.28
2023-05-01T14:37:20.790Z,98656.28
2023-05-01T14:39:48.517Z,98661.41
2023-05-01T14:42:16.269Z,98634.41
2023-05-01T14:44:44.380Z,98623.41
2023-05-01T14:47:20.942Z,98640.53
2023-05-01T14:49:53.429Z,98620.78
2023-05-01T14:52:22.367Z,98636.09
2023-05-01T14:54:52.426Z,98618.38
2023-05-01T14:57:20.275Z,98622.69
2023-05-01T14:59:48.032Z,98612.13
2023-05-01T15:02:16.034Z,98566.47
2023-05-01T15:04:44.906Z,98567.84
2023-05-01T15:07:14.008Z,98602.78
2023-05-01T15:09:43.035Z,98543.66
2023-05-01T15:12:11.372Z,98561.47
2023-05-01T15:14:39.131Z,98535.59
2023-05-01T15:17:07.284Z,98561.47
2023-05-01T15:19:35.340Z,98534.75
2023-05-01T15:22:06.292Z,98550.19
2023-05-01T15:24:35.436Z,98540.88
2023-05-01T15:27:06.116Z,98521.13
2023-05-01T15:29:34.315Z,98514.13
2023-05-01T15:32:11.976Z,98492.72
2023-05-01T15:34:41.388Z,98468.78
2023-05-01T15:37:09.613Z,98484.91
2023-05-01T15:39:40.472Z,98505.63
2023-05-01T15:42:08.653Z,98446.25
2023-05-01T15:44:36.436Z,98427.63
2023-05-01T15:47:04.342Z,98394.66
2023-05-01T15:49:32.420Z,98407.84
2023-05-01T15:52:00.176Z,98453.34
2023-05-01T15:54:28.778Z,98473.22
2023-05-01T15:56:58.661Z,98446.25
2023-05-01T15:59:27.606Z,98463.50
2023-05-01T16:01:55.680Z,98456.69
2023-05-01T16:04:23.707Z,98475.03
2023-05-01T16:06:51.675Z,98461.97
2023-05-01T16:09:20.195Z,98441.53
2023-05-01T16:11:48.307Z,98413.00
2023-05-01T16:14:18.709Z,98405.34
2023-05-01T16:16:46.464Z,98400.06
2023-05-01T16:19:17.146Z,98418.13
2023-05-01T16:21:45.119Z,98436.38
2023-05-01T16:24:17.924Z,98484.50
2023-05-01T16:26:46.786Z,98485.31
2023-05-01T16:29:14.766Z,98535.25
2023-05-01T16:31:47.395Z,98531.09
2023-05-01T16:34:18.157Z,98576.75
2023-05-01T16:36:46.894Z,98543.91
2023-05-01T16:39:19.108Z,98543.91
2023-05-01T16:41:48.102Z,98533.59
2023-05-01T16:44:17.435Z,98490.75
2023-05-01T16:46:53.883Z,98452.66
2023-05-01T16:49:22.082Z,98477.13
2023-05-01T16:51:50.207Z,98477.13
2023-05-01T16:54:19.741Z,98446.09
2023-05-01T16:56:47.492Z,98460.56
2023-05-01T16:59:15.332Z,98530.25
2023-05-01T17:01:43.094Z,98492.41
2023-05-01T17:04:12.280Z,98467.66
2023-05-01T17:06:40.519Z,98470.28
2023-05-01T17:09:08.933Z,98468.50
2023-05-01T17:11:36.734Z,98470.28
2023-05-01T17:14:04.696Z,98533.88
2023-05-01T17:16:34.456Z,98512.31
2023-05-01T17:19:05.864Z,98491.00
2023-05-01T17:21:35.047Z,98492.41
2023-05-01T17:24:03.148Z,98511.75
2023-05-01T17:26:31.583Z,98534.81
2023-05-01T17:29:01.121Z,98608.19
2023-05-01T17:31:30.829Z,98560.84
2023-05-01T17:33:58.609Z,98530.53
2023-05-01T17:36:27.264Z,98530.53
2023-05-01T17:38:56.456Z,98518.41
2023-05-01T17:41:24.858Z,98520.22
2023-05-01T17:43:52.686Z,98553.19
2023-05-01T17:46:20.661Z,98424.59
2023-05-01T17:48:49.109Z,98557.34
2023-05-01T17:51:17.042Z,98573.94
2023-05-01T17:53:45.007Z,98603.56
2023-05-01T17:56:14.128Z,98572.50
2023-05-01T17:58:42.602Z,98544.94
2023-05-01T18:01:10.531Z,98591.19
2023-05-01T18:03:39.091Z,98600.66
2023-05-01T18:06:07.282Z,98599.81
2023-05-01T18:08:35.314Z,98650.63
2023-05-01T18:11:03.706Z,98698.13
2023-05-01T18:13:38.105Z,98716.50
2023-05-01T18:16:06.259Z,98719.00
2023-05-01T18:18:34.090Z,98765.53
2023-05-01T18:21:02.062Z,98781.13
2023-05-01T18:23:30.013Z,98830.31
2023-05-01T18:25:58.594Z,98838.00
2023-05-01T18:28:27.118Z,98862.09
2023-05-01T18:30:56.386Z,98895.97
2023-05-01T18:33:24.786Z,98910.59
2023-05-01T18:35:52.757Z,98922.50
2023-05-01T18:38:22.822Z,98943.41
2023-05-01T18:40:50.593Z,98960.69
2023-05-01T18:43:18.378Z,98984.09
2023-05-01T18:45:46.189Z,99000.44
2023-05-01T18:48:15.342Z,99013.41
2023-05-01T18:50:47.199Z,99013.66
2023-05-01T18:53:19.162Z,99042.81
2023-05-01T18:55:47.683Z,99042.97
2023-05-01T18:58:15.560Z,99038.50
2023-05-01T19:00:43.635Z,99040.44
2023-05-01T19:03:12.389Z,99044.91
2023-05-01T19:05:42.021Z,99067.25
2023-05-01T19:08:09.921Z,99087.06
2023-05-01T19:10:38.206Z,99108.69
2023-05-01T19:13:07.235Z,99128.19
2023-05-01T19:15:35.142Z,99133.94
2023-05-01T19:18:03.112Z,99125.28
2023-05-01T19:20:30.910Z,99135.63
2023-05-01T19:23:00.009Z,99110.63
2023-05-01T19:25:28.040Z,99116.78
2023-05-01T19:27:56.048Z,99094.44
2023-05-01T19:30:23.848Z,99083.50
2023-05-01T19:32:51.926Z,99122.91
2023-05-01T19:35:20.405Z,99110.19
2023-05-01T19:37:50.569Z,99125.56
2023-05-01T19:40:19.795Z,99132.53
2023-05-01T19:42:47.530Z,99137.81
2023-05-01T19:45:17.695Z,99158.50
2023-05-01T19:47:46.660Z,99168.38
2023-05-01T19:50:14.463Z,99168.81
2023-05-01T19:52:42.394Z,99175.78
2023-05-01T19:55:11.744Z,99180.13
2023-05-01T19:57:40.964Z,99175.78
2023-05-01T20:00:11.802Z,99178.69
2023-05-01T20:02:40.048Z,99153.38
2023-05-01T20:05:08.447Z,99169.06
2023-05-01T20:07:36.319Z,99174.25
2023-05-01T20:10:04.949Z,99149.25
2023-05-01T20:12:33.287Z,99148.41
2023-05-01T20:15:02.504Z,99153.00
2023-05-01T20:17:30.376Z,99151.06
2023-05-01T20:19:58.512Z,99152.03
2023-05-01T20:22:26.524Z,99159.00
2023-05-01T20:24:54.372Z,99113.38
2023-05-01T20:27:22.109Z,99159.97
2023-05-01T20:29:50.062Z,99147.69
2023-05-01T20:32:19.543Z,99135.22
2023-05-01T20:34:47.488Z,99154.94
2023-05-01T20:37:15.341Z,99176.56
2023-05-01T20:39:43.180Z,99151.34
2023-05-01T20:42:11.044Z,99172.94
2023-05-01T20:44:39.654Z,99189.41
2023-05-01T20:47:07.562Z,99200.84
2023-05-01T20:49:36.700Z,99200.59
2023-05-01T20:52:04.521Z,99219.84
2023-05-01T20:54:32.911Z,99230.19
2023-05-01T20:57:02.625Z,99245.09
2023-05-01T20:59:30.788Z,99240.78
2023-05-01T21:01:58.897Z,99255.47
2023-05-01T21:04:26.766Z,99242.44
2023-05-01T21:06:56.355Z,99249.44
2023-05-01T21:09:24.280Z,99242.44
2023-05-01T21:11:52.212Z,99263.41
2023-05-01T21:14:20.183Z,99275.44
2023-05-01T21:16:48.141Z,99257.38
2023-05-01T21:19:16.132Z,99256.66
2023-05-01T21:21:44.046Z,99250.41
2023-05-01T21:24:21.288Z,99256.44
2023-05-01T21:26:49.261Z,99254.97
2023-05-01T21:29:17.168Z,99254.97
2023-05-01T21:31:45.084Z,99243.66
2023-05-01T21:34:12.996Z,99244.38
2023-05-01T21:36:44.839Z,99237.78
2023-05-01T21:39:14.046Z,99235.97
2023-05-01T21:41:41.866Z,99232.63
2023-05-01T21:44:10.881Z,99232.63
2023-05-01T21:46:39.720Z,99233.34
2023-05-01T21:49:07.632Z,99228.41
2023-05-01T21:51:35.808Z,99231.78
2023-05-01T21:54:05.349Z,99230.09
2023-05-01T21:56:34.786Z,99249.09
2023-05-01T21:59:03.270Z,99235.28
2023-05-01T22:01:31.139Z,99230.94
2023-05-01T22:03:59.324Z,99232.88
2023-05-01T22:06:28.305Z,99224.72
2023-05-01T22:08:56.357Z,99225.91
2023-05-01T22:11:24.371Z,99225.06
2023-05-01T22:13:53.546Z,99249.22
2023-05-01T22:16:21.386Z,99271.84
2023-05-01T22:18:50.524Z,99251.16
2023-05-01T22:21:19.070Z,99238.16
2023-05-01T22:23:47.706Z,99244.19
2023-05-01T22:26:15.548Z,99243.47
2023-05-01T22:28:43.369Z,99229.50
2023-05-01T22:31:12.596Z,99155.31
2023-05-01T22:33:40.491Z,99204.50
2023-05-01T22:36:08.377Z,99225.44
2023-05-01T22:38:36.228Z,99224.47
2023-05-01T22:41:04.256Z,99208.00
2023-05-01T22:43:32.079Z,99232.41
2023-05-01T22:46:00.341Z,99233.38
2023-05-01T22:48:29.700Z,99240.09
2023-05-01T22:50:57.448Z,99251.28
2023-05-01T22:53:26.552Z,99220.28
2023-05-01T22:55:54.374Z,99209.09
2023-05-01T22:58:22.174Z,99224.72
2023-05-01T23:00:49.997Z,99197.09
2023-05-01T23:03:17.952Z,99134.81
2023-05-01T23:05:47.675Z,99140.81
2023-05-01T23:08:15.618Z,99111.50
2023-05-01T23:10:43.452Z,99119.69
2023-05-01T23:13:19.450Z,99112.47
2023-05-01T23:15:50.003Z,99098.03
2023-05-01T23:18:23.625Z,99070.16
2023-05-01T23:20:53.673Z,99018.91
2023-05-01T23:23:22.195Z,98991.63
2023-05-01T23:25:50.969Z,98984.66
2023-05-01T23:28:24.203Z,98979.59
2023-05-01T23:30:55.859Z,98956.31
2023-05-01T23:33:25.142Z,98967.34
2023-05-01T23:35:54.316Z,98924.41
2023-05-01T23:38:22.110Z,98919.38
2023-05-01T23:40:49.977Z,98922.72
2023-05-01T23:43:18.190Z,98874.72
2023-05-01T23:45:46.574Z,98911.44
2023-05-01T23:48:15.147Z,98893.44
2023-05-01T23:50:43.094Z,98877.84
2023-05-01T23:53:12.254Z,98853.84
2023-05-01T23:55:40.000Z,98837.53
2023-05-01T23:58:07.712Z,98821.09
